createdAt,value
2022-10-05T00:01:35.293Z,101998.25
2022-10-05T00:04:25.897Z,101996.13
2022-10-05T00:06:59.208Z,101986.41
2022-10-05T00:09:25.787Z,101990.53
2022-10-05T00:11:52.267Z,101980.22
2022-10-05T00:14:34.989Z,101983.91
2022-10-05T00:17:04.454Z,101982.69
2022-10-05T00:19:39.012Z,101988.13
2022-10-05T00:22:14.764Z,101970.31
2022-10-05T00:24:41.322Z,101983.56
2022-10-05T00:27:21.364Z,101982.31
2022-10-05T00:29:50.440Z,101992.22
2022-10-05T00:32:17.320Z,101983.56
2022-10-05T00:34:45.145Z,101987.47
2022-10-05T00:37:13.438Z,101991.56
2022-10-05T00:39:41.073Z,101991.56
2022-10-05T00:42:28.752Z,101999.31
2022-10-05T00:45:05.746Z,101994.63
2022-10-05T00:47:38.537Z,102004.06
2022-10-05T00:50:13.759Z,101999.69
2022-10-05T00:53:02.072Z,102003.94
2022-10-05T00:55:47.385Z,101999.81
2022-10-05T00:58:49.060Z,102005.66
2022-10-05T01:01:24.239Z,102000.09
2022-10-05T01:04:25.994Z,102005.84
2022-10-05T01:07:22.382Z,101995.19
2022-10-05T01:10:09.671Z,101991.06
2022-10-05T01:12:54.131Z,101992.22
2022-10-05T01:15:45.367Z,101985.03
2022-10-05T01:18:14.562Z,101984.53
2022-10-05T01:20:50.025Z,101985.53
2022-10-05T01:23:32.870Z,101995.06
2022-10-05T01:26:26.560Z,101991.75
2022-10-05T01:29:10.382Z,101991.44
2022-10-05T01:31:56.234Z,101995.94
2022-10-05T01:34:31.499Z,101999.91
2022-10-05T01:37:16.916Z,101988.81
2022-10-05T01:39:45.965Z,101987.81
2022-10-05T01:42:41.163Z,101986.16
2022-10-05T01:45:52.860Z,101993.19
2022-10-05T01:48:44.260Z,101997.78
2022-10-05T01:51:22.243Z,101989.59
2022-10-05T01:54:00.218Z,101987.31
2022-10-05T01:56:45.447Z,101989.16
2022-10-05T01:59:18.942Z,101990.16
2022-10-05T02:01:55.603Z,101990.16
2022-10-05T02:07:38.747Z,102006.50
2022-10-05T02:10:08.749Z,101998.34
2022-10-05T02:12:38.372Z,101997.13
2022-10-05T02:15:19.633Z,102000.06
2022-10-05T02:17:50.408Z,102000.34
2022-10-05T02:20:25.326Z,101998.44
2022-10-05T02:22:56.082Z,101998.44
2022-10-05T02:25:28.839Z,102006.59
2022-10-05T02:28:01.976Z,101998.72
2022-10-05T02:30:31.508Z,102006.81
2022-10-05T02:33:02.657Z,102002.75
2022-10-05T02:35:29.107Z,102007.53
2022-10-05T02:38:11.704Z,102009.91
2022-10-05T02:40:50.035Z,102002.19
2022-10-05T02:43:38.941Z,101999.75
2022-10-05T02:46:33.688Z,101994.22
2022-10-05T02:49:31.116Z,101994.84
2022-10-05T02:52:10.914Z,101995.88
2022-10-05T02:54:46.179Z,101995.44
2022-10-05T02:57:28.326Z,101989.63
2022-10-05T03:00:25.844Z,101992.28
2022-10-05T03:03:08.764Z,101990.09
2022-10-05T03:05:48.246Z,101988.06
2022-10-05T03:08:20.359Z,101989.91
2022-10-05T03:11:00.103Z,101986.78
2022-10-05T03:13:34.256Z,101991.66
2022-10-05T03:16:18.439Z,101990.91
2022-10-05T03:19:12.907Z,101994.19
2022-10-05T03:22:07.907Z,101992.38
2022-10-05T03:24:56.300Z,101985.75
2022-10-05T03:27:36.546Z,101992.00
2022-10-05T03:30:15.284Z,101990.25
2022-10-05T03:32:55.906Z,101986.75
2022-10-05T03:35:31.655Z,101981.44
2022-10-05T03:38:08.167Z,101984.63
2022-10-05T03:40:54.350Z,101986.84
2022-10-05T03:43:29.829Z,101990.34
2022-10-05T03:46:12.594Z,101988.69
2022-10-05T03:49:27.559Z,101997.03
2022-10-05T03:52:02.566Z,101992.75
2022-10-05T03:54:38.487Z,102004.34
2022-10-05T03:57:14.400Z,101998.16
2022-10-05T03:59:55.856Z,101995.66
2022-10-05T04:02:49.310Z,101993.34
2022-10-05T04:05:29.863Z,101998.53
2022-10-05T04:08:06.280Z,101998.00
2022-10-05T04:10:52.860Z,102004.41
2022-10-05T04:13:30.165Z,102000.44
2022-10-05T04:16:24.927Z,102004.38
2022-10-05T04:19:01.233Z,102010.47
2022-10-05T04:21:38.172Z,102005.22
2022-10-05T04:24:30.964Z,101999.69
2022-10-05T04:27:44.131Z,102004.16
2022-10-05T04:30:17.600Z,102002.09
2022-10-05T04:32:48.351Z,102003.81
2022-10-05T04:35:17.523Z,102003.91
2022-10-05T04:37:55.610Z,102002.72
2022-10-05T04:40:55.022Z,102005.00
2022-10-05T04:43:30.010Z,102008.97
2022-10-05T04:46:10.688Z,102018.72
2022-10-05T04:48:58.532Z,102013.19
2022-10-05T04:52:02.780Z,102018.53
2022-10-05T04:55:06.959Z,102019.97
2022-10-05T04:57:45.535Z,102016.53
2022-10-05T05:00:41.178Z,102020.28
2022-10-05T05:03:20.818Z,102024.22
2022-10-05T05:06:17.211Z,102023.56
2022-10-05T05:09:15.143Z,102033.50
2022-10-05T05:12:05.576Z,102025.34
2022-10-05T05:15:04.418Z,102022.84
2022-10-05T05:17:39.719Z,102029.22
2022-10-05T05:20:49.479Z,102028.78
2022-10-05T05:23:30.373Z,102030.53
2022-10-05T05:26:16.871Z,102035.25
2022-10-05T05:28:54.614Z,102035.63
2022-10-05T05:31:46.593Z,102041.31
2022-10-05T05:34:43.095Z,102040.81
2022-10-05T05:37:15.486Z,102039.88
2022-10-05T05:40:25.044Z,102043.06
2022-10-05T05:43:03.223Z,102045.25
2022-10-05T05:45:41.010Z,102041.59
2022-10-05T05:48:15.285Z,102048.16
2022-10-05T05:51:03.570Z,102047.06
2022-10-05T05:53:36.787Z,102057.91
2022-10-05T05:56:20.955Z,102061.78
2022-10-05T05:58:59.524Z,102061.34
2022-10-05T06:01:43.527Z,102066.59
2022-10-05T06:04:18.440Z,102062.72
2022-10-05T06:06:50.260Z,102062.19
2022-10-05T06:09:25.969Z,102061.81
2022-10-05T06:11:55.936Z,102062.19
2022-10-05T06:14:29.139Z,102077.97
2022-10-05T06:17:26.367Z,102072.59
2022-10-05T06:20:02.448Z,102074.34
2022-10-05T06:22:39.139Z,102072.66
2022-10-05T06:25:34.035Z,102082.19
2022-10-05T06:28:12.137Z,102080.66
2022-10-05T06:30:53.251Z,102077.91
2022-10-05T06:33:42.096Z,102080.72
2022-10-05T06:36:32.810Z,102082.47
2022-10-05T06:39:17.635Z,102081.56
2022-10-05T06:42:14.737Z,102078.31
2022-10-05T06:44:54.542Z,102081.09
2022-10-05T06:47:42.346Z,102079.53
2022-10-05T06:50:40.614Z,102073.25
2022-10-05T06:53:57.028Z,102079.75
2022-10-05T06:56:33.028Z,102088.13
2022-10-05T06:59:21.112Z,102093.34
2022-10-05T07:02:30.456Z,102091.91
2022-10-05T07:05:10.769Z,102099.63
2022-10-05T07:07:47.355Z,102096.84
2022-10-05T07:10:41.536Z,102098.16
2022-10-05T07:13:17.067Z,102100.91
2022-10-05T07:16:06.015Z,102100.28
2022-10-05T07:18:49.787Z,102097.94
2022-10-05T07:21:51.602Z,102103.03
2022-10-05T07:24:38.931Z,102103.50
2022-10-05T07:27:14.586Z,102099.00
2022-10-05T07:29:47.895Z,102108.91
2022-10-05T07:32:39.752Z,102096.94
2022-10-05T07:35:57.542Z,102096.53
2022-10-05T07:38:32.992Z,102107.66
2022-10-05T07:41:06.588Z,102098.38
2022-10-05T07:44:02.003Z,102099.63
2022-10-05T07:47:17.640Z,102108.41
2022-10-05T07:49:52.557Z,102116.22
2022-10-05T07:52:56.010Z,102109.81
2022-10-05T07:55:32.222Z,102114.78
2022-10-05T07:58:29.463Z,102109.81
2022-10-05T08:01:19.120Z,102105.56
2022-10-05T08:03:45.689Z,102112.59
2022-10-05T08:06:38.124Z,102112.13
2022-10-05T08:09:22.493Z,102118.53
2022-10-05T08:11:52.273Z,102123.53
2022-10-05T08:14:28.797Z,102127.84
2022-10-05T08:16:59.750Z,102127.75
2022-10-05T08:19:32.446Z,102121.66
2022-10-05T08:22:05.076Z,102122.06
2022-10-05T08:24:34.359Z,102123.22
2022-10-05T08:27:20.512Z,102130.94
2022-10-05T08:29:58.460Z,102130.75
2022-10-05T08:32:30.500Z,102132.81
2022-10-05T08:34:59.949Z,102131.56
2022-10-05T08:37:35.498Z,102137.72
2022-10-05T08:40:35.948Z,102135.88
2022-10-05T08:43:41.549Z,102139.56
2022-10-05T08:46:53.243Z,102133.41
2022-10-05T08:49:22.863Z,102142.06
2022-10-05T08:51:56.787Z,102132.59
2022-10-05T08:54:38.279Z,102140.63
2022-10-05T08:57:29.508Z,102137.97
2022-10-05T09:00:12.659Z,102133.00
2022-10-05T09:03:01.042Z,102134.03
2022-10-05T09:06:02.704Z,102138.56
2022-10-05T09:08:47.796Z,102142.41
2022-10-05T09:11:35.974Z,102139.97
2022-10-05T09:14:11.469Z,102142.25
2022-10-05T09:16:46.920Z,102143.72
2022-10-05T09:19:51.011Z,102138.78
2022-10-05T09:22:38.887Z,102149.88
2022-10-05T09:25:18.504Z,102148.44
2022-10-05T09:28:01.893Z,102145.75
2022-10-05T09:30:40.218Z,102151.88
2022-10-05T09:37:06.904Z,102156.84
2022-10-05T09:40:01.186Z,102157.25
2022-10-05T09:43:01.684Z,102152.34
2022-10-05T09:45:36.817Z,102144.25
2022-10-05T09:48:37.754Z,102152.72
2022-10-05T09:51:19.706Z,102144.06
2022-10-05T09:53:52.163Z,102142.78
2022-10-05T09:56:49.847Z,102141.78
2022-10-05T09:59:46.265Z,102146.09
2022-10-05T10:02:50.785Z,102145.19
2022-10-05T10:05:47.458Z,102150.50
2022-10-05T10:08:26.180Z,102140.19
2022-10-05T10:11:29.585Z,102139.97
2022-10-05T10:15:09.750Z,102137.84
2022-10-05T10:18:06.325Z,102137.69
2022-10-05T10:20:47.661Z,102137.28
2022-10-05T10:23:38.499Z,102126.09
2022-10-05T10:26:25.879Z,102132.19
2022-10-05T10:29:19.717Z,102142.03
2022-10-05T10:32:31.095Z,102143.28
2022-10-05T10:35:00.556Z,102138.63
2022-10-05T10:37:36.132Z,102141.34
2022-10-05T10:40:20.276Z,102133.03
2022-10-05T10:43:18.627Z,102135.66
2022-10-05T10:45:56.673Z,102128.22
2022-10-05T10:48:28.897Z,102122.50
2022-10-05T10:50:58.251Z,102128.53
2022-10-05T10:54:03.620Z,102131.06
2022-10-05T10:56:45.107Z,102135.50
2022-10-05T10:59:49.956Z,102128.88
2022-10-05T11:02:49.859Z,102130.28
2022-10-05T11:05:22.245Z,102124.94
2022-10-05T11:08:13.529Z,102122.31
2022-10-05T11:10:58.897Z,102127.47
2022-10-05T11:13:52.569Z,102119.47
2022-10-05T11:16:48.410Z,102114.31
2022-10-05T11:19:35.138Z,102113.88
2022-10-05T11:22:19.283Z,102112.66
2022-10-05T11:24:50.158Z,102105.59
2022-10-05T11:27:41.587Z,102102.97
2022-10-05T11:30:52.232Z,102099.28
2022-10-05T11:33:30.843Z,102095.69
2022-10-05T11:36:16.204Z,102087.19
2022-10-05T11:39:04.238Z,102088.34
2022-10-05T11:41:51.807Z,102084.09
2022-10-05T11:44:18.329Z,102083.81
2022-10-05T11:46:47.576Z,102083.97
2022-10-05T11:49:27.041Z,102078.81
2022-10-05T11:52:12.969Z,102086.13
2022-10-05T11:55:05.701Z,102076.16
2022-10-05T11:57:37.806Z,102081.63
2022-10-05T12:00:13.840Z,102083.06
2022-10-05T12:02:59.825Z,102077.66
2022-10-05T12:05:57.374Z,102069.81
2022-10-05T12:09:03.623Z,102070.81
2022-10-05T12:11:42.765Z,102071.31
2022-10-05T12:14:48.793Z,102067.28
2022-10-05T12:17:27.966Z,102072.66
2022-10-05T12:20:13.180Z,102064.47
2022-10-05T12:22:50.713Z,102064.06
2022-10-05T12:25:33.670Z,102062.13
2022-10-05T12:28:05.679Z,102058.56
2022-10-05T12:30:47.698Z,102057.47
2022-10-05T12:33:25.547Z,102053.78
2022-10-05T12:36:12.052Z,102053.66
2022-10-05T12:38:46.132Z,102048.06
2022-10-05T12:41:38.456Z,102040.59
2022-10-05T12:44:13.207Z,102042.78
2022-10-05T12:46:48.927Z,102040.00
2022-10-05T12:49:24.241Z,102031.59
2022-10-05T12:51:57.911Z,102039.06
2022-10-05T12:54:32.288Z,102038.56
2022-10-05T12:57:06.154Z,102036.69
2022-10-05T12:59:50.558Z,102039.00
2022-10-05T13:02:29.219Z,102041.75
2022-10-05T13:05:07.819Z,102035.31
2022-10-05T13:07:38.586Z,102028.19
2022-10-05T13:10:29.901Z,102032.00
2022-10-05T13:13:34.259Z,102032.22
2022-10-05T13:16:16.594Z,102029.31
2022-10-05T13:19:14.410Z,102024.88
2022-10-05T13:21:49.799Z,102024.59
2022-10-05T13:24:26.656Z,102023.88
2022-10-05T13:27:03.911Z,102017.63
2022-10-05T13:29:54.494Z,102025.69
2022-10-05T13:32:25.791Z,102026.97
2022-10-05T13:35:01.250Z,102026.75
2022-10-05T13:38:06.224Z,102029.31
2022-10-05T13:40:58.084Z,102030.56
2022-10-05T13:43:49.135Z,102031.31
2022-10-05T13:46:34.627Z,102035.94
2022-10-05T13:49:19.456Z,102031.53
2022-10-05T13:52:01.399Z,102031.09
2022-10-05T13:54:57.210Z,102023.47
2022-10-05T13:57:51.599Z,102026.38
2022-10-05T14:00:26.620Z,102028.19
2022-10-05T14:02:56.806Z,102022.28
2022-10-05T14:05:28.704Z,102021.59
2022-10-05T14:08:04.854Z,102015.31
2022-10-05T14:10:53.773Z,102015.41
2022-10-05T14:13:44.197Z,102017.09
2022-10-05T14:16:13.662Z,102015.78
2022-10-05T14:19:09.033Z,102020.00
2022-10-05T14:22:24.732Z,102014.22
2022-10-05T14:25:13.765Z,102002.88
2022-10-05T14:28:24.163Z,102002.53
2022-10-05T14:31:15.097Z,102002.44
2022-10-05T14:33:42.208Z,102006.69
2022-10-05T14:36:21.261Z,102004.09
2022-10-05T14:38:57.944Z,102010.28
2022-10-05T14:41:27.339Z,102006.59
2022-10-05T14:44:05.369Z,102000.66
2022-10-05T14:46:34.513Z,102005.28
2022-10-05T14:49:37.346Z,102001.63
2022-10-05T14:52:32.511Z,101997.63
2022-10-05T14:55:06.990Z,102000.75
2022-10-05T14:57:39.947Z,101998.56
2022-10-05T15:00:12.511Z,101999.00
2022-10-05T15:03:18.662Z,101998.09
2022-10-05T15:05:45.103Z,102000.81
2022-10-05T15:08:11.503Z,101996.44
2022-10-05T15:10:56.706Z,101996.34
2022-10-05T15:13:32.743Z,101992.31
2022-10-05T15:16:33.560Z,101994.78
2022-10-05T15:19:16.070Z,102000.56
2022-10-05T15:21:45.367Z,101996.63
2022-10-05T15:24:19.783Z,101996.63
2022-10-05T15:26:50.576Z,101995.19
2022-10-05T15:29:52.219Z,102002.97
2022-10-05T15:32:58.002Z,101992.41
2022-10-05T15:35:48.033Z,101994.78
2022-10-05T15:38:23.176Z,101996.41
2022-10-05T15:41:46.043Z,102003.25
2022-10-05T15:44:26.009Z,102001.69
2022-10-05T15:46:56.432Z,102000.91
2022-10-05T15:49:37.044Z,102001.63
2022-10-05T15:52:19.534Z,102000.06
2022-10-05T15:55:07.193Z,101998.53
2022-10-05T15:57:56.171Z,102002.75
2022-10-05T16:00:25.290Z,102008.13
2022-10-05T16:03:29.390Z,101999.81
2022-10-05T16:06:47.277Z,102010.81
2022-10-05T16:09:13.668Z,102013.97
2022-10-05T16:11:59.022Z,102012.34
2022-10-05T16:14:30.643Z,102015.56
2022-10-05T16:17:16.462Z,102018.25
2022-10-05T16:20:17.158Z,102018.19
2022-10-05T16:22:51.440Z,102014.16
2022-10-05T16:25:29.024Z,102018.31
2022-10-05T16:28:17.922Z,102017.94
2022-10-05T16:30:53.312Z,102013.94
2022-10-05T16:33:54.292Z,102020.66
2022-10-05T16:36:22.518Z,102020.03
2022-10-05T16:39:03.449Z,102021.31
2022-10-05T16:41:42.692Z,102019.78
2022-10-05T16:44:24.519Z,102020.44
2022-10-05T16:47:04.034Z,102020.88
2022-10-05T16:49:39.560Z,102025.78
2022-10-05T16:52:13.747Z,102038.34
2022-10-05T16:54:53.640Z,102032.34
2022-10-05T16:57:24.999Z,102039.06
2022-10-05T17:00:24.529Z,102032.44
2022-10-05T17:03:04.837Z,102038.84
2022-10-05T17:05:51.251Z,102047.00
2022-10-05T17:08:51.823Z,102043.13
2022-10-05T17:11:51.971Z,102049.38
2022-10-05T17:14:36.906Z,102052.72
2022-10-05T17:17:58.727Z,102052.84
2022-10-05T17:20:46.403Z,102055.91
2022-10-05T17:23:29.236Z,102059.84
2022-10-05T17:26:04.332Z,102055.34
2022-10-05T17:28:57.480Z,102058.19
2022-10-05T17:31:27.825Z,102054.91
2022-10-05T17:34:00.271Z,102053.25
2022-10-05T17:36:57.809Z,102060.50
2022-10-05T17:39:52.541Z,102062.72
2022-10-05T17:42:34.310Z,102066.78
2022-10-05T17:45:20.705Z,102058.88
2022-10-05T17:48:03.288Z,102072.44
2022-10-05T17:51:02.107Z,102077.66
2022-10-05T17:54:05.396Z,102079.56
2022-10-05T17:56:52.457Z,102071.56
2022-10-05T17:59:46.274Z,102075.31
2022-10-05T18:02:36.702Z,102078.44
2022-10-05T18:05:04.204Z,102079.81
2022-10-05T18:07:31.887Z,102076.28
2022-10-05T18:10:00.378Z,102079.47
2022-10-05T18:12:40.145Z,102079.72
2022-10-05T18:15:06.564Z,102088.16
2022-10-05T18:18:00.845Z,102086.50
2022-10-05T18:20:32.351Z,102082.66
2022-10-05T18:23:09.354Z,102086.38
2022-10-05T18:25:52.851Z,102090.94
2022-10-05T18:28:35.558Z,102089.28
2022-10-05T18:31:21.344Z,102087.66
2022-10-05T18:34:21.106Z,102081.28
2022-10-05T18:37:15.658Z,102088.06
2022-10-05T18:40:23.600Z,102082.31
2022-10-05T18:43:19.578Z,102087.25
2022-10-05T18:46:08.063Z,102092.41
2022-10-05T18:48:46.792Z,102099.44
2022-10-05T18:51:28.470Z,102093.25
2022-10-05T18:54:28.384Z,102093.63
2022-10-05T18:56:54.885Z,102100.22
2022-10-05T18:59:47.825Z,102093.22
2022-10-05T19:02:38.392Z,102101.03
2022-10-05T19:05:23.641Z,102106.19
2022-10-05T19:08:42.507Z,102106.38
2022-10-05T19:11:23.144Z,102099.19
2022-10-05T19:14:14.040Z,102107.84
2022-10-05T19:16:54.649Z,102092.38
2022-10-05T19:19:42.666Z,102103.28
2022-10-05T19:22:17.882Z,102108.03
2022-10-05T19:25:24.107Z,102108.03
2022-10-05T19:28:28.026Z,102102.44
2022-10-05T19:31:13.077Z,102106.78
2022-10-05T19:34:09.032Z,102107.41
2022-10-05T19:36:53.740Z,102108.81
2022-10-05T19:39:59.281Z,102113.31
2022-10-05T19:42:53.128Z,102114.97
2022-10-05T19:45:28.327Z,102107.78
2022-10-05T19:48:03.960Z,102117.03
2022-10-05T19:50:33.565Z,102117.03
2022-10-05T19:53:14.446Z,102118.03
2022-10-05T19:55:47.556Z,102118.03
2022-10-05T19:58:25.341Z,102116.94
2022-10-05T20:00:55.314Z,102122.22
2022-10-05T20:03:29.890Z,102126.09
2022-10-05T20:06:01.454Z,102123.03
2022-10-05T20:08:39.830Z,102131.97
2022-10-05T20:11:35.133Z,102130.75
2022-10-05T20:14:01.685Z,102133.03
2022-10-05T20:16:49.448Z,102128.91
2022-10-05T20:19:54.016Z,102128.22
2022-10-05T20:22:27.488Z,102134.38
2022-10-05T20:24:56.712Z,102130.81
2022-10-05T20:27:55.206Z,102129.91
2022-10-05T20:30:27.385Z,102127.84
2022-10-05T20:32:59.667Z,102128.66
2022-10-05T20:35:30.536Z,102135.94
2022-10-05T20:37:59.742Z,102127.78
2022-10-05T20:40:30.243Z,102132.78
2022-10-05T20:42:58.246Z,102132.53
2022-10-05T20:45:25.191Z,102138.06
2022-10-05T20:47:51.619Z,102138.47
2022-10-05T20:50:18.366Z,102139.28
2022-10-05T20:52:44.817Z,102142.41
2022-10-05T20:55:12.564Z,102140.13
2022-10-05T20:57:42.095Z,102145.28
2022-10-05T21:00:10.353Z,102138.56
2022-10-05T21:02:37.227Z,102149.16
2022-10-05T21:05:04.674Z,102145.97
2022-10-05T21:07:31.279Z,102148.44
2022-10-05T21:09:57.755Z,102143.81
2022-10-05T21:12:24.260Z,102146.09
2022-10-05T21:14:52.592Z,102147.28
2022-10-05T21:17:20.175Z,102148.53
2022-10-05T21:19:47.417Z,102147.09
2022-10-05T21:22:13.841Z,102148.69
2022-10-05T21:24:41.023Z,102146.75
2022-10-05T21:27:07.943Z,102145.56
2022-10-05T21:29:36.422Z,102149.97
2022-10-05T21:32:08.289Z,102139.63
2022-10-05T21:34:35.103Z,102149.09
2022-10-05T21:37:01.607Z,102151.53
2022-10-05T21:39:28.173Z,102143.22
2022-10-05T21:41:54.651Z,102146.09
2022-10-05T21:44:21.086Z,102136.53
2022-10-05T21:46:48.388Z,102137.13
2022-10-05T21:49:19.505Z,102135.31
2022-10-05T21:51:47.217Z,102141.16
2022-10-05T21:54:21.041Z,102141.91
2022-10-05T21:56:51.368Z,102141.34
2022-10-05T21:59:21.588Z,102138.94
2022-10-05T22:01:48.018Z,102143.28
2022-10-05T22:04:15.089Z,102138.78
2022-10-05T22:06:41.535Z,102146.31
2022-10-05T22:09:08.035Z,102139.41
2022-10-05T22:11:34.533Z,102137.09
2022-10-05T22:14:03.848Z,102137.03
2022-10-05T22:16:33.414Z,102139.47
2022-10-05T22:19:05.084Z,102146.63
2022-10-05T22:21:34.211Z,102139.28
2022-10-05T22:24:02.400Z,102138.94
2022-10-05T22:26:29.003Z,102138.81
2022-10-05T22:28:56.792Z,102141.91
2022-10-05T22:31:24.077Z,102142.00
2022-10-05T22:33:51.272Z,102129.03
2022-10-05T22:36:18.154Z,102135.13
2022-10-05T22:38:46.552Z,102136.34
2022-10-05T22:41:14.402Z,102137.34
2022-10-05T22:43:40.812Z,102134.06
2022-10-05T22:46:09.713Z,102131.13
2022-10-05T22:48:36.531Z,102125.09
2022-10-05T22:51:03.099Z,102124.69
2022-10-05T22:53:29.580Z,102125.59
2022-10-05T22:55:56.024Z,102116.59
2022-10-05T22:58:22.497Z,102122.31
2022-10-05T23:00:58.694Z,102113.50
2022-10-05T23:03:25.415Z,102107.38
2022-10-05T23:06:00.636Z,102120.09
2022-10-05T23:08:27.653Z,102115.94
2022-10-05T23:10:54.578Z,102108.59
2022-10-05T23:13:22.390Z,102108.94
2022-10-05T23:15:49.088Z,102104.00
2022-10-05T23:18:16.682Z,102103.06
2022-10-05T23:20:43.158Z,102103.19
2022-10-05T23:23:09.679Z,102105.22
2022-10-05T23:25:36.502Z,102099.09
2022-10-05T23:28:03.079Z,102105.69
2022-10-05T23:30:29.653Z,102105.69
2022-10-05T23:32:56.106Z,102104.56
2022-10-05T23:35:22.516Z,102104.19
2022-10-05T23:37:48.940Z,102105.41
2022-10-05T23:40:15.451Z,102104.16
2022-10-05T23:42:42.491Z,102103.97
2022-10-05T23:45:11.286Z,102107.66
2022-10-05T23:47:38.752Z,102098.81
2022-10-05T23:50:07.042Z,102096.69
2022-10-05T23:52:34.718Z,102099.00
2022-10-05T23:55:05.220Z,102104.28
2022-10-05T23:57:31.969Z,102100.72
2022-10-05T23:59:58.474Z,102095.75
